createdAt,value
2019-05-03T00:03:09.839Z,26.77
2019-05-03T00:06:14.240Z,25.73
2019-05-03T00:09:20.286Z,23.70
2019-05-03T00:12:24.689Z,24.53
2019-05-03T00:15:48.120Z,23.17
2019-05-03T00:18:52.724Z,22.73
2019-05-03T00:21:57.100Z,22.53
2019-05-03T00:25:05.943Z,22.60
2019-05-03T00:28:07.506Z,22.40
2019-05-03T00:31:12.437Z,21.17
2019-05-03T00:34:21.867Z,21.83
2019-05-03T00:37:28.003Z,22.57
2019-05-03T00:40:32.485Z,22.03
2019-05-03T00:43:36.911Z,21.43
2019-05-03T00:46:42.158Z,22.33
2019-05-03T00:49:46.577Z,22.60
2019-05-03T00:52:51.555Z,22.60
2019-05-03T00:55:55.992Z,22.67
2019-05-03T00:59:02.066Z,23.20
2019-05-03T01:02:06.391Z,23.70
2019-05-03T01:05:11.978Z,23.37
2019-05-03T01:08:16.380Z,24.27
2019-05-03T01:11:22.257Z,23.70
2019-05-03T01:14:26.859Z,22.73
2019-05-03T01:17:32.004Z,22.43
2019-05-03T01:20:36.334Z,22.70
2019-05-03T01:23:42.002Z,22.03
2019-05-03T01:26:46.425Z,22.20
2019-05-03T01:29:51.959Z,21.20
2019-05-03T01:32:56.566Z,19.97
2019-05-03T01:36:02.777Z,21.80
2019-05-03T01:39:07.363Z,19.00
2019-05-03T01:42:12.009Z,20.13
2019-05-03T01:45:16.735Z,20.80
2019-05-03T01:48:34.127Z,20.30
2019-05-03T01:52:06.546Z,19.00
2019-05-03T01:55:15.732Z,20.60
2019-05-03T01:58:18.022Z,19.40
2019-05-03T02:01:34.510Z,21.60
2019-05-03T02:04:57.872Z,19.33
2019-05-03T02:08:02.267Z,18.67
2019-05-03T02:11:06.576Z,18.77
2019-05-03T02:14:12.364Z,18.47
2019-05-03T02:17:16.864Z,19.57
2019-05-03T02:20:21.920Z,17.97
2019-05-03T02:23:26.742Z,18.13
2019-05-03T02:26:31.794Z,17.97
2019-05-03T02:29:36.221Z,18.47
2019-05-03T02:32:43.637Z,18.30
2019-05-03T02:35:46.619Z,16.70
2019-05-03T02:38:53.315Z,16.97
2019-05-03T02:42:03.006Z,15.93
2019-05-03T02:45:05.916Z,16.93
2019-05-03T02:48:17.319Z,17.40
2019-05-03T02:51:21.601Z,15.80
2019-05-03T02:54:27.018Z,15.93
2019-05-03T02:57:31.661Z,16.63
2019-05-03T03:00:56.310Z,15.63
2019-05-03T03:04:01.189Z,16.27
2019-05-03T03:07:06.079Z,16.07
2019-05-03T03:10:12.335Z,15.93
2019-05-03T03:13:17.738Z,16.27
2019-05-03T03:16:24.993Z,15.67
2019-05-03T03:19:29.970Z,15.13
2019-05-03T03:22:36.324Z,15.70
2019-05-03T03:25:46.262Z,15.20
2019-05-03T03:28:56.369Z,15.07
2019-05-03T03:32:28.996Z,15.23
2019-05-03T03:35:32.408Z,14.77
2019-05-03T03:38:36.864Z,15.33
2019-05-03T03:41:41.597Z,16.03
2019-05-03T03:44:47.227Z,17.07
2019-05-03T03:47:56.301Z,17.10
2019-05-03T03:51:01.461Z,17.30
2019-05-03T03:54:06.347Z,17.37
2019-05-03T03:57:12.123Z,16.57
2019-05-03T04:00:16.997Z,16.60
2019-05-03T04:03:22.662Z,17.13
2019-05-03T04:06:40.733Z,17.37
2019-05-03T04:09:45.816Z,17.70
2019-05-03T04:12:50.353Z,17.40
2019-05-03T04:16:21.143Z,16.40
2019-05-03T04:19:29.336Z,16.30
2019-05-03T04:22:36.150Z,17.73
2019-05-03T04:25:40.305Z,17.40
2019-05-03T04:28:45.314Z,17.70
2019-05-03T04:31:50.051Z,18.10
2019-05-03T04:34:55.901Z,17.40
2019-05-03T04:38:00.353Z,17.10
2019-05-03T04:41:05.894Z,16.57
2019-05-03T04:44:10.551Z,17.97
2019-05-03T04:47:15.724Z,18.67
2019-05-03T04:50:20.305Z,17.77
2019-05-03T04:53:25.946Z,18.10
2019-05-03T04:56:30.517Z,19.30
2019-05-03T04:59:35.860Z,19.83
2019-05-03T05:02:40.387Z,20.83
2019-05-03T05:05:45.267Z,19.57
2019-05-03T05:08:49.843Z,20.23
2019-05-03T05:11:54.847Z,19.50
2019-05-03T05:14:59.345Z,21.07
2019-05-03T05:18:12.030Z,20.67
2019-05-03T05:21:38.162Z,21.23
2019-05-03T05:24:42.642Z,20.83
2019-05-03T05:28:15.099Z,20.63
2019-05-03T05:31:19.634Z,21.13
2019-05-03T05:34:24.578Z,21.37
2019-05-03T05:37:29.098Z,20.80
2019-05-03T05:40:34.940Z,21.97
2019-05-03T05:43:39.394Z,21.90
2019-05-03T05:46:51.717Z,22.50
2019-05-03T05:50:04.875Z,22.90
2019-05-03T05:53:09.028Z,23.90
2019-05-03T05:56:35.364Z,23.13
2019-05-03T05:59:57.298Z,23.07
2019-05-03T06:03:01.804Z,24.03
2019-05-03T06:06:08.439Z,24.03
2019-05-03T06:09:28.659Z,24.30
2019-05-03T06:12:45.440Z,24.33
2019-05-03T06:16:01.893Z,24.30
2019-05-03T06:19:18.118Z,24.80
2019-05-03T06:22:36.218Z,24.20
2019-05-03T06:25:42.396Z,24.13
2019-05-03T06:28:46.866Z,25.37
2019-05-03T06:32:01.814Z,23.23
2019-05-03T06:35:07.200Z,24.13
2019-05-03T06:38:11.579Z,23.73
2019-05-03T06:41:16.294Z,24.40
2019-05-03T06:44:24.787Z,24.13
2019-05-03T06:47:28.554Z,25.20
2019-05-03T06:50:34.827Z,24.03
2019-05-03T06:53:41.841Z,23.53
2019-05-03T06:56:45.584Z,24.80
2019-05-03T06:59:58.184Z,24.70
2019-05-03T07:03:08.539Z,24.80
2019-05-03T07:06:40.083Z,25.43
2019-05-03T07:09:47.329Z,24.97
2019-05-03T07:13:04.917Z,24.70
2019-05-03T07:16:09.596Z,24.50
2019-05-03T07:19:14.740Z,23.97
2019-05-03T07:22:19.410Z,25.40
2019-05-03T07:25:25.767Z,25.70
2019-05-03T07:28:43.632Z,24.60
2019-05-03T07:31:37.940Z,25.20
2019-05-03T07:34:42.365Z,24.17
2019-05-03T07:37:48.007Z,24.57
2019-05-03T07:40:55.300Z,23.73
2019-05-03T07:43:59.774Z,24.63
2019-05-03T07:47:04.843Z,24.07
2019-05-03T07:50:09.654Z,25.00
2019-05-03T07:53:15.070Z,24.73
2019-05-03T07:56:19.599Z,24.60
2019-05-03T07:59:25.118Z,25.47
2019-05-03T08:02:29.733Z,24.40
2019-05-03T08:05:34.994Z,24.67
2019-05-03T08:08:39.689Z,24.00
2019-05-03T08:11:44.477Z,24.23
2019-05-03T08:14:49.266Z,25.73
2019-05-03T08:17:55.439Z,26.27
2019-05-03T08:21:00.164Z,27.37
2019-05-03T08:24:04.812Z,26.93
2019-05-03T08:27:09.378Z,26.40
2019-05-03T08:30:16.950Z,25.57
2019-05-03T08:33:29.714Z,26.03
2019-05-03T08:36:54.882Z,27.10
2019-05-03T08:39:59.617Z,26.57
2019-05-03T08:43:05.184Z,29.03
2019-05-03T08:46:09.911Z,27.00
2019-05-03T08:49:15.017Z,28.10
2019-05-03T08:52:19.884Z,26.73
2019-05-03T08:55:25.064Z,26.70
2019-05-03T08:58:29.928Z,27.60
2019-05-03T09:01:37.707Z,27.53
2019-05-03T09:04:43.269Z,27.00
2019-05-03T09:07:50.450Z,26.57
2019-05-03T09:10:58.191Z,27.23
2019-05-03T09:14:05.942Z,26.50
2019-05-03T09:17:10.969Z,26.00
2019-05-03T09:20:15.913Z,26.57
2019-05-03T09:23:23.436Z,27.90
2019-05-03T09:26:29.568Z,25.70
2019-05-03T09:29:42.532Z,25.97
2019-05-03T09:32:40.529Z,26.87
2019-05-03T09:35:47.208Z,26.30
2019-05-03T09:38:52.069Z,25.93
2019-05-03T09:41:57.151Z,26.23
2019-05-03T09:45:02.532Z,26.30
2019-05-03T09:48:07.845Z,24.70
2019-05-03T09:51:14.557Z,26.53
2019-05-03T09:54:25.518Z,25.43
2019-05-03T09:57:34.646Z,24.97
2019-05-03T10:00:39.122Z,24.23
2019-05-03T10:03:45.174Z,23.27
2019-05-03T10:06:50.409Z,23.23
2019-05-03T10:09:55.521Z,22.33
2019-05-03T10:13:00.158Z,22.63
2019-05-03T10:16:06.161Z,19.60
2019-05-03T10:19:13.785Z,19.77
2019-05-03T10:22:25.779Z,18.37
2019-05-03T10:25:35.707Z,19.30
2019-05-03T10:28:40.260Z,18.77
2019-05-03T10:31:54.482Z,17.43
2019-05-03T10:35:05.498Z,16.53
2019-05-03T10:38:09.428Z,17.10
2019-05-03T10:41:13.925Z,16.67
2019-05-03T10:44:18.891Z,17.07
2019-05-03T10:47:25.332Z,15.53
2019-05-03T10:50:29.624Z,15.13
2019-05-03T10:53:38.171Z,15.47
2019-05-03T10:56:56.261Z,15.13
2019-05-03T11:00:00.937Z,15.07
2019-05-03T11:03:07.750Z,14.80
2019-05-03T11:06:12.281Z,15.23
2019-05-03T11:09:17.198Z,14.23
2019-05-03T11:12:21.870Z,14.60
2019-05-03T11:15:26.506Z,14.30
2019-05-03T11:18:30.942Z,13.20
2019-05-03T11:21:35.644Z,14.30
2019-05-03T11:24:40.169Z,14.53
2019-05-03T11:27:49.427Z,13.97
2019-05-03T11:31:01.690Z,13.37
2019-05-03T11:34:01.523Z,15.20
2019-05-03T11:37:25.212Z,14.03
2019-05-03T11:40:29.990Z,14.27
2019-05-03T11:43:35.011Z,13.60
2019-05-03T11:46:39.800Z,14.97
2019-05-03T11:49:46.547Z,14.17
2019-05-03T11:52:51.053Z,14.27
2019-05-03T11:55:55.934Z,14.97
2019-05-03T11:59:00.693Z,14.00
2019-05-03T12:02:16.102Z,12.43
2019-05-03T12:05:25.919Z,11.37
2019-05-03T12:08:30.738Z,9.40
2019-05-03T12:11:37.221Z,9.43
2019-05-03T12:14:41.862Z,8.33
2019-05-03T12:17:54.142Z,7.80
2019-05-03T12:20:57.039Z,6.97
2019-05-03T12:24:01.530Z,6.40
2019-05-03T12:27:07.030Z,6.33
2019-05-03T12:30:11.890Z,6.27
2019-05-03T12:33:16.500Z,5.60
2019-05-03T12:36:21.190Z,5.03
2019-05-03T12:39:30.078Z,5.00
2019-05-03T12:42:32.183Z,4.67
2019-05-03T12:45:36.789Z,4.13
2019-05-03T12:48:41.522Z,4.60
2019-05-03T12:51:46.290Z,3.70
2019-05-03T12:54:51.312Z,5.17
2019-05-03T12:57:55.902Z,4.30
2019-05-03T13:01:18.921Z,4.33
2019-05-03T13:04:26.193Z,3.90
2019-05-03T13:07:38.583Z,4.40
2019-05-03T13:10:45.195Z,3.83
2019-05-03T13:13:49.622Z,4.50
2019-05-03T13:16:55.208Z,3.50
2019-05-03T13:19:59.878Z,3.13
2019-05-03T13:23:05.580Z,3.50
2019-05-03T13:26:10.170Z,2.93
2019-05-03T13:29:15.283Z,3.57
2019-05-03T13:32:20.119Z,3.03
2019-05-03T13:35:25.688Z,3.20
2019-05-03T13:38:30.232Z,3.70
2019-05-03T13:41:35.026Z,2.97
2019-05-03T13:44:39.461Z,3.20
2019-05-03T13:47:44.698Z,2.97
2019-05-03T13:50:49.406Z,2.57
2019-05-03T13:53:55.052Z,3.33
2019-05-03T13:56:59.635Z,2.80
2019-05-03T14:00:05.831Z,2.70
2019-05-03T14:03:10.482Z,3.07
2019-05-03T14:06:15.138Z,3.20
2019-05-03T14:09:20.696Z,3.17
2019-05-03T14:12:25.133Z,3.13
2019-05-03T14:15:29.730Z,3.00
2019-05-03T14:18:35.143Z,3.07
2019-05-03T14:21:44.721Z,3.13
2019-05-03T14:24:49.227Z,2.73
2019-05-03T14:27:54.950Z,3.30
2019-05-03T14:30:59.497Z,2.53
2019-05-03T14:34:06.011Z,2.77
2019-05-03T14:37:10.087Z,2.70
2019-05-03T14:40:15.260Z,2.80
2019-05-03T14:43:21.546Z,2.50
2019-05-03T14:46:32.549Z,3.00
2019-05-03T14:49:34.499Z,2.80
2019-05-03T14:52:38.715Z,3.10
2019-05-03T14:55:49.886Z,3.93
2019-05-03T14:59:11.872Z,3.10
2019-05-03T15:02:24.541Z,3.67
2019-05-03T15:05:29.255Z,3.60
2019-05-03T15:08:35.006Z,3.63
2019-05-03T15:11:39.564Z,3.80
2019-05-03T15:14:45.169Z,3.93
2019-05-03T15:17:49.745Z,4.77
2019-05-03T15:20:54.993Z,5.73
2019-05-03T15:23:59.614Z,6.60
2019-05-03T15:27:05.354Z,6.57
2019-05-03T15:30:10.215Z,7.30
2019-05-03T15:33:15.117Z,6.37
2019-05-03T15:36:19.800Z,7.50
2019-05-03T15:39:26.315Z,6.33
2019-05-03T15:42:31.129Z,6.40
2019-05-03T15:45:47.455Z,6.20
2019-05-03T15:48:55.255Z,5.33
2019-05-03T15:51:59.708Z,5.40
2019-05-03T15:55:04.745Z,5.20
2019-05-03T15:58:09.314Z,4.83
2019-05-03T16:01:15.311Z,5.20
2019-05-03T16:04:19.895Z,4.83
2019-05-03T16:07:25.044Z,4.90
2019-05-03T16:10:29.569Z,4.80
2019-05-03T16:13:35.552Z,5.03
2019-05-03T16:16:40.361Z,5.43
2019-05-03T16:19:47.750Z,5.03
2019-05-03T16:22:54.238Z,4.80
2019-05-03T16:25:58.840Z,4.80
2019-05-03T16:29:12.318Z,5.20
2019-05-03T16:32:18.337Z,5.13
2019-05-03T16:35:23.084Z,5.10
2019-05-03T16:38:27.864Z,5.57
2019-05-03T16:41:32.681Z,5.37
2019-05-03T16:44:37.782Z,5.80
2019-05-03T16:47:42.666Z,5.80
2019-05-03T16:50:49.646Z,6.47
2019-05-03T16:53:55.056Z,5.50
2019-05-03T16:57:01.694Z,6.33
2019-05-03T17:00:06.441Z,5.83
2019-05-03T17:03:12.431Z,6.63
2019-05-03T17:06:27.671Z,6.83
2019-05-03T17:09:48.389Z,6.43
2019-05-03T17:12:54.362Z,7.00
2019-05-03T17:15:59.329Z,6.33
2019-05-03T17:19:05.762Z,6.63
2019-05-03T17:22:10.176Z,7.00
2019-05-03T17:25:16.216Z,7.17
2019-05-03T17:28:20.899Z,7.77
2019-05-03T17:31:25.332Z,7.17
2019-05-03T17:34:29.959Z,7.00
2019-05-03T17:37:34.735Z,7.70
2019-05-03T17:40:56.528Z,7.47
2019-05-03T17:44:15.121Z,7.70
2019-05-03T17:47:19.894Z,7.63
2019-05-03T17:50:25.680Z,8.67
2019-05-03T17:53:47.399Z,9.37
2019-05-03T17:57:15.096Z,15.67
2019-05-03T18:00:38.918Z,32.70
2019-05-03T18:03:46.103Z,19.63
2019-05-03T18:07:04.594Z,30.13
2019-05-03T18:10:10.358Z,28.10
2019-05-03T18:13:14.988Z,28.27
2019-05-03T18:16:19.501Z,26.50
2019-05-03T18:19:24.151Z,25.03
2019-05-03T18:22:29.806Z,22.00
2019-05-03T18:25:35.469Z,20.47
2019-05-03T18:28:40.235Z,19.00
2019-05-03T18:31:46.824Z,17.03
2019-05-03T18:34:51.431Z,15.97
2019-05-03T18:37:59.376Z,16.23
2019-05-03T18:41:04.606Z,15.47
2019-05-03T18:44:30.847Z,14.83
2019-05-03T18:47:41.510Z,17.10
2019-05-03T18:50:45.972Z,18.23
2019-05-03T18:53:51.238Z,32.30
2019-05-03T18:56:55.864Z,39.77
2019-05-03T19:00:00.355Z,47.87
2019-05-03T19:03:05.032Z,60.37
2019-05-03T19:06:10.259Z,66.63
2019-05-03T19:09:38.120Z,62.53
2019-05-03T19:12:47.968Z,50.93
2019-05-03T19:15:55.076Z,42.03
2019-05-03T19:18:59.866Z,38.17
2019-05-03T19:22:05.139Z,36.70
2019-05-03T19:25:09.698Z,32.67
2019-05-03T19:28:13.973Z,33.60
2019-05-03T19:31:18.274Z,38.70
2019-05-03T19:34:24.308Z,45.07
2019-05-03T19:37:28.901Z,50.63
2019-05-03T19:40:35.087Z,57.77
2019-05-03T19:43:39.320Z,56.07
2019-05-03T19:46:44.516Z,53.13
2019-05-03T19:49:48.765Z,47.43
2019-05-03T19:53:01.734Z,44.10
2019-05-03T19:56:08.582Z,40.27
2019-05-03T19:59:15.058Z,36.63
2019-05-03T20:02:35.195Z,34.20
2019-05-03T20:05:52.253Z,30.03
2019-05-03T20:09:00.528Z,28.37
2019-05-03T20:12:04.926Z,26.83
2019-05-03T20:15:09.548Z,26.57
2019-05-03T20:18:15.060Z,23.93
2019-05-03T20:21:19.802Z,23.47
2019-05-03T20:24:25.330Z,22.60
2019-05-03T20:27:29.648Z,21.87
2019-05-03T20:30:34.848Z,20.97
2019-05-03T20:33:39.130Z,21.03
2019-05-03T20:36:45.236Z,20.27
2019-05-03T20:39:49.194Z,21.93
2019-05-03T20:43:15.420Z,19.87
2019-05-03T20:46:33.110Z,24.77
2019-05-03T20:49:37.312Z,25.50
2019-05-03T20:52:41.391Z,25.17
2019-05-03T20:55:45.472Z,26.40
2019-05-03T20:58:49.623Z,27.50
2019-05-03T21:01:54.618Z,27.37
2019-05-03T21:04:58.565Z,27.23
2019-05-03T21:08:02.669Z,27.37
2019-05-03T21:11:06.604Z,27.90
2019-05-03T21:14:10.473Z,27.93
2019-05-03T21:17:36.592Z,27.33
2019-05-03T21:20:51.228Z,26.97
2019-05-03T21:23:58.548Z,27.20
2019-05-03T21:27:02.502Z,27.70
2019-05-03T21:30:06.818Z,26.77
2019-05-03T21:33:10.716Z,27.07
2019-05-03T21:36:15.117Z,27.73
2019-05-03T21:39:19.257Z,26.53
2019-05-03T21:42:23.101Z,28.67
2019-05-03T21:45:33.120Z,28.30
2019-05-03T21:49:08.335Z,28.50
2019-05-03T21:52:14.704Z,28.63
2019-05-03T21:55:18.864Z,28.90
2019-05-03T21:58:24.545Z,28.93
2019-05-03T22:01:34.614Z,26.93
2019-05-03T22:04:40.399Z,27.37
2019-05-03T22:07:44.446Z,26.90
2019-05-03T22:10:49.780Z,26.60
2019-05-03T22:13:57.066Z,25.17
2019-05-03T22:17:19.245Z,26.53
2019-05-03T22:20:42.170Z,24.93
2019-05-03T22:24:25.249Z,26.53
2019-05-03T22:27:36.330Z,26.87
2019-05-03T22:30:40.283Z,27.27
2019-05-03T22:33:46.108Z,26.33
2019-05-03T22:36:49.848Z,27.10
2019-05-03T22:39:55.031Z,27.70
2019-05-03T22:42:59.113Z,27.63
2019-05-03T22:46:03.027Z,29.00
2019-05-03T22:49:07.139Z,28.47
2019-05-03T22:52:10.967Z,30.63
2019-05-03T22:55:15.302Z,32.33
2019-05-03T22:58:19.373Z,33.67
2019-05-03T23:01:25.477Z,32.57
2019-05-03T23:04:29.041Z,30.90
2019-05-03T23:07:35.521Z,32.43
2019-05-03T23:10:38.529Z,32.17
2019-05-03T23:13:44.507Z,32.23
2019-05-03T23:16:48.372Z,34.07
2019-05-03T23:19:56.714Z,32.77
2019-05-03T23:23:00.580Z,34.73
2019-05-03T23:26:04.589Z,31.63
2019-05-03T23:29:08.429Z,33.57
2019-05-03T23:32:12.315Z,33.17
2019-05-03T23:35:16.234Z,32.43
2019-05-03T23:38:20.172Z,33.00
2019-05-03T23:41:24.539Z,30.77
2019-05-03T23:44:28.577Z,31.17
2019-05-03T23:47:40.196Z,31.53
2019-05-03T23:50:44.636Z,29.90
2019-05-03T23:53:48.691Z,29.73
2019-05-03T23:56:54.681Z,29.83
2019-05-03T23:59:58.458Z,30.43
